Time;durP1;ratioP1;P1;durP2;ratioP2;P2;SDS_P1;SDS_P2;PMS_P1;PMS_P2;Temp;Humidity;BMP_temperature;BMP_pressure;BME280_temperature;BME280_humidity;BME280_pressure;Samples;Min_cycle;Max_cycle;Signal;HPM_P1;HPM_P2
2023/06/28 00:01:27;;;;;;;3.00;1.50;;;;;;;12.68;75.66;99979.58;105736;276;39382;-72
2023/06/28 00:04:01;;;;;;;1.60;1.20;;;;;;;12.63;75.91;99978.06;105752;276;39467;-72
2023/06/28 00:06:35;;;;;;;1.60;1.40;;;;;;;12.59;75.80;99977.61;105721;276;38264;-72
2023/06/28 00:09:09;;;;;;;3.00;1.50;;;;;;;12.52;75.90;99981.30;105741;276;38509;-72
2023/06/28 00:11:44;;;;;;;4.10;1.90;;;;;;;12.47;75.99;99984.35;105771;276;38271;-72
2023/06/28 00:14:18;;;;;;;2.40;1.10;;;;;;;12.43;76.00;99983.66;105760;276;38399;-72
2023/06/28 00:16:52;;;;;;;4.10;1.60;;;;;;;12.38;76.07;99981.66;105720;276;39423;-72
2023/06/28 00:19:27;;;;;;;4.90;1.60;;;;;;;12.34;76.23;99987.96;105407;276;39548;-72
2023/06/28 00:22:03;;;;;;;3.40;1.40;;;;;;;12.31;76.30;99990.61;105726;276;38820;-72
2023/06/28 00:24:37;;;;;;;4.20;1.70;;;;;;;12.25;76.42;99995.42;105717;276;39379;-72
2023/06/28 00:27:12;;;;;;;4.20;1.70;;;;;;;12.20;76.60;99996.23;105408;274;38439;-72
2023/06/28 00:29:45;;;;;;;5.00;1.60;;;;;;;12.16;76.81;99997.63;105066;276;901631;-72
2023/06/28 00:32:19;;;;;;;3.70;1.30;;;;;;;12.18;77.21;99998.97;106138;276;38302;-72
2023/06/28 00:34:54;;;;;;;2.60;1.40;;;;;;;12.17;77.30;99997.07;105417;277;39286;-72
2023/06/28 00:37:28;;;;;;;3.50;1.60;;;;;;;12.18;77.61;99997.73;105943;277;38824;-72
2023/06/28 00:40:02;;;;;;;3.90;1.90;;;;;;;12.17;77.63;99996.72;105961;277;39553;-72
2023/06/28 00:42:36;;;;;;;3.40;1.60;;;;;;;12.16;77.71;99996.09;105511;277;38794;-72
2023/06/28 00:45:13;;;;;;;4.00;1.50;;;;;;;12.15;77.95;99994.02;105504;277;38997;-72
2023/06/28 00:47:48;;;;;;;2.90;1.40;;;;;;;12.14;77.84;99991.61;105558;277;38879;-72
2023/06/28 00:50:22;;;;;;;4.40;1.40;;;;;;;12.13;77.96;99990.29;105322;277;39001;-72
2023/06/28 00:52:56;;;;;;;5.20;1.60;;;;;;;12.12;78.02;99996.80;105548;277;38769;-72
2023/06/28 00:55:31;;;;;;;5.70;1.70;;;;;;;12.08;78.04;99993.49;105541;277;39621;-72
2023/06/28 00:58:05;;;;;;;2.80;1.40;;;;;;;12.07;78.12;99994.80;105522;277;39423;-72
2023/06/28 01:00:39;;;;;;;2.10;1.10;;;;;;;12.06;78.29;99993.95;105559;277;39472;-72
2023/06/28 01:03:18;;;;;;;2.00;1.20;;;;;;;12.06;78.36;99995.16;105307;277;38466;-72
2023/06/28 01:05:52;;;;;;;2.50;1.50;;;;;;;12.07;78.42;99992.70;105417;277;189552;-72
2023/06/28 01:08:27;;;;;;;3.70;1.60;;;;;;;12.05;78.40;99994.19;105563;277;38250;-72
2023/06/28 01:11:01;;;;;;;4.80;1.70;;;;;;;12.03;78.64;99991.13;105557;277;38804;-72
2023/06/28 01:13:35;;;;;;;2.20;1.30;;;;;;;12.02;78.55;99992.75;105549;277;38813;-72
2023/06/28 01:16:09;;;;;;;2.90;1.20;;;;;;;12.00;78.60;99992.84;105553;277;38343;-72
2023/06/28 01:18:43;;;;;;;2.80;1.50;;;;;;;11.99;78.65;99994.13;105544;277;38512;-72
2023/06/28 01:21:17;;;;;;;3.00;1.40;;;;;;;11.99;78.76;99993.42;105939;277;39669;-72
2023/06/28 01:23:51;;;;;;;3.90;1.40;;;;;;;12.00;79.10;99991.98;105554;277;38219;-72
2023/06/28 01:26:25;;;;;;;5.30;1.50;;;;;;;12.01;78.97;99990.03;105527;277;38615;-72
2023/06/28 01:28:59;;;;;;;4.10;1.50;;;;;;;12.01;79.05;99983.03;105543;277;39473;-72
2023/06/28 01:31:34;;;;;;;3.10;1.60;;;;;;;12.02;79.06;99986.11;105548;277;39608;-72
2023/06/28 01:34:08;;;;;;;5.90;2.00;;;;;;;12.05;79.29;99986.12;105383;279;39641;-72
2023/06/28 01:36:42;;;;;;;4.00;1.70;;;;;;;12.08;79.30;99984.58;105785;279;38895;-72
2023/06/28 01:39:17;;;;;;;4.30;2.40;;;;;;;12.08;79.07;99983.52;105386;279;38257;-72
2023/06/28 01:41:52;;;;;;;4.40;2.60;;;;;;;12.06;79.08;99981.20;105396;279;39673;-72
2023/06/28 01:44:26;;;;;;;3.20;2.10;;;;;;;12.04;79.32;99980.44;105365;279;38230;-72
2023/06/28 01:47:00;;;;;;;3.60;2.00;;;;;;;12.04;79.51;99978.52;105768;279;38316;-72
2023/06/28 01:49:34;;;;;;;4.50;2.00;;;;;;;12.04;79.37;99980.73;105382;279;38853;-72
2023/06/28 01:52:08;;;;;;;2.80;2.20;;;;;;;12.04;79.48;99978.47;105368;279;38933;-72
2023/06/28 01:54:42;;;;;;;4.30;2.60;;;;;;;12.06;79.80;99979.80;105808;279;38413;-72
2023/06/28 01:57:16;;;;;;;4.90;2.90;;;;;;;12.07;79.89;99976.63;105358;279;38407;-72
2023/06/28 01:59:50;;;;;;;3.40;2.10;;;;;;;12.05;79.72;99980.19;105143;280;37749;-72
2023/06/28 02:02:24;;;;;;;3.70;2.00;;;;;;;12.04;79.71;99980.23;105394;279;38508;-72
2023/06/28 02:04:59;;;;;;;3.20;2.30;;;;;;;12.04;79.65;99979.36;105349;279;38270;-72
2023/06/28 02:07:33;;;;;;;3.80;2.20;;;;;;;12.02;79.65;99978.75;105376;279;38599;-72
2023/06/28 02:10:09;;;;;;;4.20;2.70;;;;;;;12.03;79.76;99978.73;105395;279;39461;-73
2023/06/28 02:12:44;;;;;;;5.50;2.50;;;;;;;12.00;79.77;99979.41;105102;281;39407;-72
2023/06/28 02:15:18;;;;;;;3.60;2.10;;;;;;;11.97;79.86;99974.83;105373;279;38262;-72
2023/06/28 02:17:58;;;;;;;5.20;2.30;;;;;;;11.95;79.77;99978.59;105377;280;38526;-72
2023/06/28 02:20:32;;;;;;;3.10;2.10;;;;;;;11.96;79.97;99979.08;105364;279;38341;-72
2023/06/28 02:23:06;;;;;;;5.10;2.40;;;;;;;11.96;80.19;99979.25;105410;279;39621;-72
2023/06/28 02:25:40;;;;;;;7.20;2.80;;;;;;;11.96;80.08;99979.63;105380;279;39080;-72
2023/06/28 02:28:14;;;;;;;4.20;2.40;;;;;;;11.92;80.10;99975.98;105353;279;38279;-72
2023/06/28 02:30:48;;;;;;;4.70;2.20;;;;;;;11.88;80.19;99971.94;105392;279;38625;-72
2023/06/28 02:33:22;;;;;;;4.00;2.50;;;;;;;11.86;80.19;99969.09;105343;279;39610;-72
2023/06/28 02:35:56;;;;;;;3.60;2.30;;;;;;;11.83;80.14;99968.52;105673;279;174384;-72
2023/06/28 02:38:30;;;;;;;4.00;2.40;;;;;;;11.84;80.70;99972.30;105367;280;38990;-72
2023/06/28 02:41:05;;;;;;;3.70;2.30;;;;;;;11.86;80.80;99969.45;105779;279;38297;-72
2023/06/28 02:43:39;;;;;;;3.60;2.30;;;;;;;11.87;80.81;99970.08;105401;279;38492;-72
2023/06/28 02:46:14;;;;;;;4.70;2.40;;;;;;;11.89;80.83;99971.91;105192;279;39836;-72
2023/06/28 02:48:48;;;;;;;3.10;2.10;;;;;;;11.92;80.90;99975.42;105389;279;38391;-72
2023/06/28 02:51:22;;;;;;;5.10;2.70;;;;;;;11.93;80.85;99974.87;105403;279;40021;-72
2023/06/28 02:53:56;;;;;;;3.40;2.50;;;;;;;11.92;80.80;99974.73;105247;279;38478;-72
2023/06/28 02:56:30;;;;;;;2.90;2.30;;;;;;;11.91;80.91;99978.96;105783;279;38267;-72
2023/06/28 02:59:04;;;;;;;2.70;2.30;;;;;;;11.91;80.78;99978.46;105341;284;38462;-72
2023/06/28 03:01:39;;;;;;;2.90;2.30;;;;;;;11.88;80.84;99985.74;105353;279;38904;-72
2023/06/28 03:04:14;;;;;;;3.30;2.20;;;;;;;11.90;80.99;99986.36;105305;279;38277;-72
2023/06/28 03:06:51;;;;;;;3.70;2.70;;;;;;;11.91;81.03;99984.23;105366;279;39729;-72
2023/06/28 03:09:25;;;;;;;3.50;2.40;;;;;;;11.94;81.45;99977.96;105342;279;38514;-72
2023/06/28 03:11:59;;;;;;;3.50;2.30;;;;;;;12.00;81.56;99974.84;105299;279;38810;-72
2023/06/28 03:14:34;;;;;;;2.90;2.50;;;;;;;12.08;81.83;99978.80;105345;279;39413;-72
2023/06/28 03:17:08;;;;;;;3.50;2.50;;;;;;;12.16;81.69;99974.59;105370;271;38478;-72
2023/06/28 03:19:42;;;;;;;4.00;2.70;;;;;;;12.22;81.77;99967.64;105175;279;38242;-72
2023/06/28 03:22:17;;;;;;;4.10;2.40;;;;;;;12.29;81.74;99969.36;105335;279;38236;-72
2023/06/28 03:24:51;;;;;;;4.60;2.50;;;;;;;12.35;81.66;99962.92;105806;279;38299;-72
2023/06/28 03:27:25;;;;;;;3.90;2.60;;;;;;;12.40;81.49;99964.76;105346;279;38507;-72
2023/06/28 03:29:59;;;;;;;4.00;2.30;;;;;;;12.48;81.81;99957.67;105081;281;39333;-72
2023/06/28 03:32:33;;;;;;;3.70;2.20;;;;;;;12.61;82.03;99960.69;105096;280;39974;-72
2023/06/28 03:35:09;;;;;;;4.30;2.10;;;;;;;12.84;82.58;99959.98;105798;279;38270;-72
2023/06/28 03:37:50;;;;;;;4.10;2.70;;;;;;;13.25;83.00;99952.14;105805;279;39457;-72
2023/06/28 03:40:24;;;;;;;3.00;2.40;;;;;;;13.87;83.17;99952.66;105340;279;39677;-72
2023/06/28 03:42:59;;;;;;;3.90;2.20;;;;;;;14.74;82.58;99950.09;105350;279;38369;-73
2023/06/28 03:45:33;;;;;;;5.60;3.00;;;;;;;15.64;81.54;99946.42;105434;279;39151;-73
2023/06/28 03:48:08;;;;;;;3.10;2.20;;;;;;;16.49;79.36;99947.42;105390;279;38269;-72
2023/06/28 03:50:42;;;;;;;2.90;2.00;;;;;;;17.33;76.87;99948.17;105406;279;38666;-72
2023/06/28 03:53:16;;;;;;;2.60;2.10;;;;;;;18.07;73.55;99947.11;105400;279;38358;-72
2023/06/28 03:55:50;;;;;;;2.00;1.80;;;;;;;18.81;71.60;99947.25;105411;279;38379;-72
2023/06/28 03:58:24;;;;;;;4.60;2.60;;;;;;;19.58;68.99;99945.95;105409;279;38425;-72
2023/06/28 04:01:02;;;;;;;3.60;1.80;;;;;;;20.28;65.64;99953.20;105413;279;38396;-72
2023/06/28 04:03:36;;;;;;;3.00;1.90;;;;;;;20.87;63.33;99955.09;105391;279;39487;-72
2023/06/28 04:06:10;;;;;;;2.60;1.90;;;;;;;21.46;60.70;99957.98;105776;279;39461;-72
2023/06/28 04:08:46;;;;;;;3.70;1.80;;;;;;;22.02;58.11;99955.41;105810;279;38522;-72
2023/06/28 04:11:20;;;;;;;3.40;1.80;;;;;;;22.47;56.29;99956.19;105391;279;38520;-72
2023/06/28 04:13:55;;;;;;;2.60;1.90;;;;;;;23.02;53.82;99949.81;105408;279;38257;-72
2023/06/28 04:16:29;;;;;;;1.70;1.50;;;;;;;23.50;51.97;99949.32;105777;279;38268;-72
2023/06/28 04:19:03;;;;;;;5.50;1.80;;;;;;;23.80;50.74;99951.85;105420;279;38369;-72
2023/06/28 04:21:37;;;;;;;4.10;1.80;;;;;;;24.05;49.31;99949.61;105383;279;39047;-72
2023/06/28 04:24:11;;;;;;;4.00;1.80;;;;;;;24.45;47.88;99951.73;105405;279;39400;-72
2023/06/28 04:26:45;;;;;;;4.10;1.80;;;;;;;24.64;46.97;99952.57;105805;279;38511;-72
2023/06/28 04:29:19;;;;;;;2.20;1.30;;;;;;;24.36;46.78;99952.39;105796;279;38728;-72
2023/06/28 04:31:53;;;;;;;2.30;1.70;;;;;;;23.87;46.69;99955.70;105396;279;38515;-72
2023/06/28 04:34:28;;;;;;;3.40;1.70;;;;;;;23.14;47.22;99955.60;105757;279;39643;-72
2023/06/28 04:37:02;;;;;;;4.50;2.20;;;;;;;22.48;48.43;99959.46;105390;279;38274;-72
2023/06/28 04:39:36;;;;;;;3.10;1.80;;;;;;;21.89;49.27;99965.42;105401;279;38803;-72
2023/06/28 04:42:13;;;;;;;5.40;1.70;;;;;;;21.40;49.93;99968.12;105389;279;38576;-72
2023/06/28 04:44:48;;;;;;;2.80;2.00;;;;;;;20.95;50.76;99972.64;105379;279;38403;-72
2023/06/28 04:47:22;;;;;;;3.40;1.90;;;;;;;20.53;51.72;99974.34;105785;279;38847;-72
2023/06/28 04:49:56;;;;;;;2.70;1.60;;;;;;;20.23;52.72;99977.40;105408;279;38541;-72
2023/06/28 04:52:30;;;;;;;2.20;1.70;;;;;;;20.18;53.56;99975.00;105397;279;38247;-73
2023/06/28 04:55:06;;;;;;;3.10;1.90;;;;;;;20.59;53.79;99976.29;105396;279;38243;-73
2023/06/28 04:57:39;;;;;;;3.20;1.80;;;;;;;21.04;53.90;99973.76;105412;279;39029;-73
2023/06/28 05:00:17;;;;;;;2.90;1.70;;;;;;;21.01;53.01;99976.87;105417;279;38303;-73
2023/06/28 05:02:52;;;;;;;3.80;1.60;;;;;;;20.82;52.94;99971.25;105424;279;38254;-73
2023/06/28 05:05:26;;;;;;;2.40;1.60;;;;;;;20.61;52.97;99975.41;105091;279;40274;-73
2023/06/28 05:08:00;;;;;;;4.40;1.70;;;;;;;20.42;53.43;99975.06;105791;279;38450;-73
2023/06/28 05:10:34;;;;;;;3.80;1.70;;;;;;;20.29;53.64;99972.99;105795;279;38275;-73
2023/06/28 05:13:08;;;;;;;2.60;1.60;;;;;;;20.17;54.36;99968.20;105387;279;38491;-73
2023/06/28 05:15:42;;;;;;;2.80;1.70;;;;;;;20.86;56.40;99976.61;105403;279;38356;-73
2023/06/28 05:18:16;;;;;;;3.60;1.70;;;;;;;22.06;54.91;99975.44;105413;279;38342;-73
2023/06/28 05:20:50;;;;;;;3.30;1.50;;;;;;;23.09;51.79;99967.73;105362;279;38869;-73
2023/06/28 05:23:25;;;;;;;3.50;1.50;;;;;;;23.71;49.93;99961.06;105410;279;38256;-73
2023/06/28 05:25:59;;;;;;;1.60;1.20;;;;;;;24.37;48.69;99967.84;105376;279;38682;-73
2023/06/28 05:28:33;;;;;;;2.20;1.40;;;;;;;25.07;47.17;99964.10;105346;279;39387;-73
2023/06/28 05:31:07;;;;;;;3.50;1.20;;;;;;;25.77;45.30;99961.10;105389;279;38351;-73
2023/06/28 05:33:43;;;;;;;4.40;1.90;;;;;;;26.34;43.87;99957.05;105397;279;38221;-73
2023/06/28 05:36:18;;;;;;;3.10;1.20;;;;;;;26.90;42.65;99948.06;105383;279;39562;-73
2023/06/28 05:38:52;;;;;;;2.10;1.30;;;;;;;27.46;41.51;99942.20;105794;279;39334;-73
2023/06/28 05:41:26;;;;;;;2.60;1.30;;;;;;;27.82;40.33;99948.63;105812;279;38710;-73
2023/06/28 05:44:00;;;;;;;2.70;1.30;;;;;;;28.16;39.45;99946.59;105374;279;39399;-73
2023/06/28 05:46:34;;;;;;;1.90;1.20;;;;;;;28.46;38.50;99946.55;105386;279;38768;-73
2023/06/28 05:49:12;;;;;;;3.80;1.60;;;;;;;28.91;37.84;99946.50;105389;279;38228;-73
2023/06/28 05:51:46;;;;;;;3.20;1.40;;;;;;;29.22;36.91;99945.20;105382;279;38253;-73
2023/06/28 05:54:20;;;;;;;2.30;1.20;;;;;;;29.34;36.31;99936.38;105353;279;38496;-73
2023/06/28 05:56:55;;;;;;;4.40;1.20;;;;;;;29.72;35.50;99939.20;105377;279;38478;-73
2023/06/28 05:59:30;;;;;;;3.40;1.10;;;;;;;30.06;35.01;99936.06;105771;279;38920;-73
2023/06/28 06:02:05;;;;;;;3.40;1.20;;;;;;;30.45;34.64;99937.87;105409;279;38243;-73
2023/06/28 06:04:39;;;;;;;2.50;1.10;;;;;;;30.74;33.57;99935.08;105345;279;39401;-73
2023/06/28 06:07:14;;;;;;;2.30;1.00;;;;;;;30.99;33.64;99931.66;105372;279;39488;-73
2023/06/28 06:09:48;;;;;;;3.50;1.30;;;;;;;31.32;33.03;99938.83;105393;279;38530;-73
2023/06/28 06:12:22;;;;;;;3.10;1.20;;;;;;;31.56;31.81;99928.15;105187;280;38250;-73
2023/06/28 06:14:57;;;;;;;3.10;1.10;;;;;;;31.77;31.67;99928.48;105386;279;38678;-73
2023/06/28 06:17:31;;;;;;;1.50;1.00;;;;;;;32.03;31.51;99925.55;105371;279;38256;-73
2023/06/28 06:20:09;;;;;;;2.60;1.10;;;;;;;32.16;30.77;99924.16;105341;279;38240;-73
2023/06/28 06:22:44;;;;;;;2.50;1.30;;;;;;;32.33;30.43;99924.20;105370;279;38237;-74
2023/06/28 06:25:20;;;;;;;2.90;1.10;;;;;;;32.11;29.98;99922.38;105357;279;38797;-74
2023/06/28 06:27:54;;;;;;;3.20;1.40;;;;;;;31.73;30.68;99922.02;105327;279;38565;-74
2023/06/28 06:30:29;;;;;;;1.80;1.10;;;;;;;31.12;30.79;99920.73;105129;279;399601;-74
2023/06/28 06:33:03;;;;;;;2.80;1.00;;;;;;;30.44;31.69;99924.48;105334;279;39919;-74
2023/06/28 06:35:37;;;;;;;3.00;1.60;;;;;;;29.79;32.40;99923.02;105374;279;39093;-74
2023/06/28 06:38:12;;;;;;;3.00;1.00;;;;;;;29.45;33.41;99922.98;105352;279;38544;-74
2023/06/28 06:40:48;;;;;;;2.50;1.10;;;;;;;29.56;34.18;99919.08;104342;281;884252;-74
2023/06/28 06:43:25;;;;;;;2.90;0.90;;;;;;;29.96;33.30;99922.81;105412;279;38487;-74
2023/06/28 06:45:58;;;;;;;2.10;0.90;;;;;;;29.79;32.70;99919.85;105413;279;38231;-74
2023/06/28 06:48:33;;;;;;;3.00;1.00;;;;;;;29.49;33.01;99915.77;105820;279;39416;-74
2023/06/28 06:51:07;;;;;;;3.00;1.20;;;;;;;29.54;33.60;99916.77;105431;279;38741;-74
2023/06/28 06:53:47;;;;;;;4.10;1.30;;;;;;;30.12;33.33;99916.52;105421;279;39400;-74
2023/06/28 06:56:27;;;;;;;2.40;1.10;;;;;;;30.79;32.19;99918.93;105382;279;39839;-74
2023/06/28 06:59:01;;;;;;;1.80;1.20;;;;;;;31.29;32.00;99920.96;105234;279;173363;-74
2023/06/28 07:01:36;;;;;;;3.70;1.00;;;;;;;32.04;30.91;99919.15;105361;279;38857;-74
2023/06/28 07:04:12;;;;;;;2.30;1.00;;;;;;;32.51;29.87;99923.60;105828;279;39700;-74
2023/06/28 07:06:47;;;;;;;3.00;1.00;;;;;;;32.81;29.29;99922.02;105349;279;38456;-74
2023/06/28 07:09:22;;;;;;;2.90;1.40;;;;;;;32.85;29.09;99924.33;105320;279;38484;-74
2023/06/28 07:11:56;;;;;;;1.80;1.10;;;;;;;32.84;28.70;99922.54;105855;279;38955;-74
2023/06/28 07:14:35;;;;;;;2.90;1.30;;;;;;;32.62;28.85;99923.64;105109;281;38299;-74
2023/06/28 07:17:10;;;;;;;2.50;1.20;;;;;;;32.37;29.58;99922.02;105109;281;38239;-74
2023/06/28 07:19:45;;;;;;;3.30;1.40;;;;;;;32.28;29.05;99918.70;105179;279;38394;-79
2023/06/28 07:22:20;;;;;;;3.00;1.00;;;;;;;32.21;29.67;99915.74;105192;281;38264;-75
2023/06/28 07:24:55;;;;;;;3.10;1.30;;;;;;;32.23;29.43;99917.92;105270;280;38319;-75
2023/06/28 07:27:31;;;;;;;2.90;1.20;;;;;;;32.47;29.41;99918.43;105445;279;38264;-77
2023/06/28 07:30:07;;;;;;;2.90;1.10;;;;;;;32.70;28.26;99919.84;105798;279;38236;-74
2023/06/28 07:32:42;;;;;;;2.20;1.20;;;;;;;32.13;28.53;99918.63;105364;279;38250;-78
2023/06/28 07:35:16;;;;;;;3.20;1.30;;;;;;;32.14;29.31;99915.55;105399;279;38514;-78
2023/06/28 07:37:52;;;;;;;4.80;1.10;;;;;;;32.14;28.33;99913.88;105406;279;39692;-73
2023/06/28 07:40:27;;;;;;;4.80;1.40;;;;;;;31.44;29.48;99915.64;105769;279;39236;-73
2023/06/28 07:43:02;;;;;;;2.60;0.90;;;;;;;30.96;29.61;99918.20;105824;279;39356;-73
2023/06/28 07:45:36;;;;;;;2.00;1.00;;;;;;;30.39;30.34;99917.68;105794;279;39145;-73
2023/06/28 07:48:10;;;;;;;7.50;1.10;;;;;;;29.88;31.04;99916.15;105386;279;39931;-74
2023/06/28 07:50:45;;;;;;;2.90;1.30;;;;;;;29.36;31.90;99916.04;105395;279;39511;-73
2023/06/28 07:53:19;;;;;;;4.30;1.80;;;;;;;29.27;33.24;99918.55;105699;279;173417;-73
2023/06/28 07:55:53;;;;;;;4.60;1.30;;;;;;;29.57;33.01;99912.91;105403;267;39023;-72
2023/06/28 07:58:27;;;;;;;4.20;1.30;;;;;;;29.46;33.14;99916.02;105391;279;38368;-72
2023/06/28 08:01:02;;;;;;;3.20;1.40;;;;;;;29.16;33.02;99915.73;105786;279;38826;-73
2023/06/28 08:03:39;;;;;;;4.20;1.20;;;;;;;28.66;33.47;99919.58;105785;279;38392;-73
2023/06/28 08:06:13;;;;;;;4.00;1.30;;;;;;;28.84;34.54;99916.02;105803;279;39670;-73
2023/06/28 08:08:47;;;;;;;4.00;1.10;;;;;;;29.09;33.70;99913.45;105390;279;38226;-73
2023/06/28 08:11:22;;;;;;;3.80;1.30;;;;;;;28.87;32.54;99912.33;105380;279;38269;-73
2023/06/28 08:13:56;;;;;;;2.90;1.10;;;;;;;28.39;32.87;99915.27;105361;279;39424;-72
2023/06/28 08:16:30;;;;;;;3.90;1.40;;;;;;;28.43;33.99;99916.58;105390;279;38639;-72
2023/06/28 08:19:04;;;;;;;3.50;1.00;;;;;;;28.42;34.07;99918.67;105370;279;39597;-72
2023/06/28 08:21:38;;;;;;;2.50;1.10;;;;;;;28.84;33.91;99912.38;105412;279;38455;-72
2023/06/28 08:24:13;;;;;;;2.90;1.40;;;;;;;29.05;33.10;99908.85;105785;283;38944;-72
2023/06/28 08:26:46;;;;;;;2.80;1.20;;;;;;;28.81;33.09;99910.35;105248;279;38992;-72
2023/06/28 08:29:20;;;;;;;4.90;1.20;;;;;;;28.63;33.08;99908.36;105355;279;38935;-72
2023/06/28 08:31:54;;;;;;;3.10;1.20;;;;;;;28.11;33.59;99912.77;105813;279;38397;-72
2023/06/28 08:34:28;;;;;;;4.50;1.30;;;;;;;27.47;34.55;99910.75;105436;280;39476;-74
2023/06/28 08:37:03;;;;;;;5.20;1.40;;;;;;;26.81;35.27;99906.56;105381;279;39456;-75
2023/06/28 08:39:37;;;;;;;4.30;1.20;;;;;;;26.29;35.67;99910.68;105377;279;38345;-75
2023/06/28 08:42:12;;;;;;;4.60;1.60;;;;;;;25.99;36.88;99911.23;105439;279;38618;-77
2023/06/28 08:44:46;;;;;;;2.40;1.20;;;;;;;26.39;37.92;99907.83;105421;279;38250;-77
2023/06/28 08:47:21;;;;;;;2.30;1.10;;;;;;;27.08;37.45;99902.18;105813;279;38278;-75
2023/06/28 08:49:58;;;;;;;6.00;1.20;;;;;;;27.93;36.64;99899.32;105411;279;38238;-75
2023/06/28 08:52:33;;;;;;;1.90;1.00;;;;;;;28.71;35.53;99892.33;105432;279;38001;-73
2023/06/28 08:55:09;;;;;;;4.20;1.30;;;;;;;28.66;34.15;99898.55;105114;279;38534;-73
2023/06/28 08:57:46;;;;;;;3.30;1.30;;;;;;;28.08;34.11;99904.85;105416;279;38255;-73
2023/06/28 09:00:23;;;;;;;2.90;1.30;;;;;;;27.41;34.21;99904.77;105388;279;39559;-73
2023/06/28 09:02:59;;;;;;;3.50;1.50;;;;;;;26.73;34.94;99898.13;105250;279;38730;-74
2023/06/28 09:05:35;;;;;;;4.30;1.20;;;;;;;26.11;36.00;99899.66;105389;279;39197;-74
2023/06/28 09:08:10;;;;;;;2.80;1.20;;;;;;;25.62;37.28;99897.18;105400;279;38273;-73
2023/06/28 09:10:44;;;;;;;5.50;1.20;;;;;;;25.26;37.79;99897.02;105418;279;38221;-73
2023/06/28 09:13:20;;;;;;;4.30;1.20;;;;;;;24.95;38.27;99896.28;105412;279;38496;-72
2023/06/28 09:15:56;;;;;;;4.40;1.60;;;;;;;24.80;38.71;99892.23;105422;268;38263;-73
2023/06/28 09:18:31;;;;;;;3.80;1.40;;;;;;;24.98;40.11;99882.20;105425;279;38250;-72
2023/06/28 09:21:06;;;;;;;2.90;1.10;;;;;;;25.70;40.80;99875.70;105081;280;39329;-73
2023/06/28 09:23:41;;;;;;;3.10;1.40;;;;;;;26.53;40.03;99872.64;105388;279;39390;-73
2023/06/28 09:26:16;;;;;;;3.20;1.20;;;;;;;27.26;38.68;99865.22;105370;279;38979;-73
2023/06/28 09:28:50;;;;;;;2.70;1.20;;;;;;;27.71;37.18;99865.03;105087;279;38345;-73
2023/06/28 09:31:25;;;;;;;3.10;1.50;;;;;;;27.57;35.50;99861.54;105430;279;38318;-73
2023/06/28 09:33:59;;;;;;;2.80;1.20;;;;;;;27.18;35.40;99869.88;105407;279;38237;-73
2023/06/28 09:36:35;;;;;;;4.20;1.30;;;;;;;26.70;35.47;99876.07;105403;279;38391;-73
2023/06/28 09:39:09;;;;;;;3.20;1.00;;;;;;;26.28;36.14;99880.95;105222;279;38265;-73
2023/06/28 09:41:44;;;;;;;5.00;1.40;;;;;;;26.11;37.10;99884.88;105353;279;38261;-73
2023/06/28 09:44:19;;;;;;;3.90;1.30;;;;;;;26.13;37.82;99883.04;105349;279;38512;-73
2023/06/28 09:46:53;;;;;;;4.70;1.20;;;;;;;26.30;37.71;99878.07;105383;279;39499;-73
2023/06/28 09:49:30;;;;;;;2.80;1.20;;;;;;;26.20;36.89;99877.88;105784;279;38316;-73
2023/06/28 09:52:06;;;;;;;2.60;1.00;;;;;;;25.89;36.73;99881.55;105376;279;38380;-72
2023/06/28 09:54:44;;;;;;;6.60;1.50;;;;;;;25.54;37.29;99884.33;105394;279;38220;-72
2023/06/28 09:57:19;;;;;;;2.40;1.10;;;;;;;25.17;37.82;99884.54;105381;279;38256;-72
2023/06/28 09:59:54;;;;;;;3.80;1.10;;;;;;;24.90;38.15;99885.08;105394;279;38470;-73
2023/06/28 10:02:30;;;;;;;5.30;1.20;;;;;;;24.75;39.08;99889.17;105392;279;38730;-73
2023/06/28 10:05:05;;;;;;;3.20;1.10;;;;;;;24.65;39.54;99889.30;105385;279;38337;-72
2023/06/28 10:07:39;;;;;;;3.10;1.40;;;;;;;24.84;40.04;99880.92;105373;279;38257;-72
2023/06/28 10:10:14;;;;;;;6.10;1.30;;;;;;;25.26;40.20;99877.14;105365;279;38221;-72
2023/06/28 10:12:49;;;;;;;3.70;1.20;;;;;;;25.84;39.70;99872.77;105364;271;39634;-72
2023/06/28 10:15:25;;;;;;;3.40;1.10;;;;;;;26.20;38.80;99871.45;105256;280;38473;-72
2023/06/28 10:18:00;;;;;;;4.80;1.20;;;;;;;26.32;38.09;99872.78;105241;280;38233;-73
2023/06/28 10:20:37;;;;;;;4.60;1.30;;;;;;;26.27;38.13;99877.33;104997;279;38552;-73
2023/06/28 10:23:15;;;;;;;3.00;1.20;;;;;;;26.17;38.02;99880.64;105347;279;39450;-73
2023/06/28 10:25:49;;;;;;;2.80;1.20;;;;;;;26.13;37.78;99881.72;105350;279;38250;-73
2023/06/28 10:28:23;;;;;;;2.90;1.20;;;;;;;26.32;38.16;99879.84;105340;279;39950;-73
2023/06/28 10:30:57;;;;;;;3.20;1.50;;;;;;;26.54;38.47;99877.38;105373;279;38872;-73
2023/06/28 10:33:32;;;;;;;3.10;1.20;;;;;;;26.48;37.36;99872.11;105391;279;38490;-73
2023/06/28 10:36:07;;;;;;;3.00;1.00;;;;;;;26.20;37.24;99871.55;105245;279;173641;-74
2023/06/28 10:38:43;;;;;;;3.30;1.30;;;;;;;25.83;37.27;99874.88;105370;279;38934;-74
2023/06/28 10:41:21;;;;;;;3.60;1.10;;;;;;;25.43;37.74;99872.81;105811;279;38705;-73
2023/06/28 10:44:05;;;;;;;3.80;1.20;;;;;;;25.04;38.49;99877.54;105246;280;38636;-73
2023/06/28 10:46:40;;;;;;;4.00;1.30;;;;;;;24.78;39.03;99882.27;105389;279;39091;-73
2023/06/28 10:49:15;;;;;;;3.80;1.50;;;;;;;24.85;39.69;99881.99;105811;279;38256;-73
2023/06/28 10:51:49;;;;;;;6.30;1.40;;;;;;;25.16;40.06;99873.92;105097;281;41079;-72
2023/06/28 10:54:23;;;;;;;3.80;1.20;;;;;;;25.52;40.13;99866.35;105417;279;38266;-72
2023/06/28 10:57:02;;;;;;;5.50;1.80;;;;;;;25.66;38.74;99868.56;105389;279;38342;-72
2023/06/28 10:59:38;;;;;;;5.40;1.30;;;;;;;25.52;38.26;99872.70;105405;279;38941;-72
2023/06/28 11:02:12;;;;;;;3.00;1.20;;;;;;;25.40;38.29;99872.84;105362;279;38358;-72
2023/06/28 11:04:55;;;;;;;3.50;1.30;;;;;;;25.40;38.83;99868.61;105383;279;38352;-72
2023/06/28 11:07:30;;;;;;;4.70;1.50;;;;;;;25.79;39.11;99863.85;105376;279;38394;-72
2023/06/28 11:10:17;;;;;;;3.80;1.60;;;;;;;26.02;38.58;99865.52;105369;279;38324;-72
2023/06/28 11:12:53;;;;;;;4.80;1.50;;;;;;;25.90;38.05;99878.73;105386;279;38297;-73
2023/06/28 11:15:33;;;;;;;5.40;1.80;;;;;;;25.70;38.77;99880.42;105381;279;39973;-73
2023/06/28 11:18:19;;;;;;;5.00;1.40;;;;;;;25.54;38.96;99888.22;105380;279;38273;-73
2023/06/28 11:20:59;;;;;;;3.80;1.60;;;;;;;25.38;38.98;99891.92;105366;279;39405;-73
2023/06/28 11:23:38;;;;;;;6.40;1.50;;;;;;;25.23;38.75;99896.35;105405;279;38302;-73
2023/06/28 11:26:14;;;;;;;3.30;1.60;;;;;;;25.10;38.70;99901.15;105385;279;38314;-73
2023/06/28 11:28:57;;;;;;;4.00;1.30;;;;;;;24.96;39.09;99896.54;105402;279;38490;-73
2023/06/28 11:31:41;;;;;;;3.20;1.20;;;;;;;24.89;39.31;99902.14;105394;279;38687;-74
2023/06/28 11:34:17;;;;;;;5.50;1.70;;;;;;;24.87;39.69;99897.36;105379;279;38228;-73
2023/06/28 11:36:52;;;;;;;5.40;1.60;;;;;;;24.84;39.69;99896.23;105417;279;40135;-73
2023/06/28 11:39:27;;;;;;;5.30;1.80;;;;;;;24.79;39.90;99896.98;105367;279;39416;-73
2023/06/28 11:42:04;;;;;;;4.60;1.50;;;;;;;24.75;39.88;99898.46;105364;279;38253;-73
2023/06/28 11:44:47;;;;;;;5.60;1.80;;;;;;;24.71;40.11;99901.90;105383;279;38356;-73
2023/06/28 11:47:22;;;;;;;3.40;1.30;;;;;;;24.67;40.50;99898.58;105231;280;40164;-73
2023/06/28 11:49:56;;;;;;;4.10;1.30;;;;;;;24.69;40.91;99897.95;105367;279;38350;-73
2023/06/28 11:52:30;;;;;;;5.60;1.40;;;;;;;24.75;41.25;99895.77;105384;279;38281;-73
2023/06/28 11:55:05;;;;;;;3.60;1.60;;;;;;;24.79;41.49;99897.83;105385;279;38239;-73
2023/06/28 11:57:47;;;;;;;5.20;1.50;;;;;;;24.81;41.18;99899.02;105346;279;39340;-75
2023/06/28 12:00:25;;;;;;;7.00;1.90;;;;;;;24.78;40.97;99898.89;105353;279;38229;-75
2023/06/28 12:02:59;;;;;;;5.30;1.80;;;;;;;24.72;40.99;99906.09;105343;279;38970;-74
2023/06/28 12:05:33;;;;;;;5.90;1.90;;;;;;;24.62;40.66;99905.48;105360;279;38675;-73
2023/06/28 12:08:08;;;;;;;6.00;2.10;;;;;;;24.39;40.51;99911.95;105414;287;38539;-73
2023/06/28 12:10:42;;;;;;;5.20;1.70;;;;;;;24.05;40.90;99915.66;105427;279;38304;-74